sensor_id;sensor_type;location;lat;lon;timestamp;P1;durP1;ratioP1;P2;durP2;ratioP2
55136;SDS011;41032;47.818;-3.732;2022-11-15T09:02:43;6.45;;;2.13;;
55136;SDS011;41032;47.818;-3.732;2022-11-15T09:05:13;6.50;;;2.15;;
55136;SDS011;41032;47.818;-3.732;2022-11-15T09:07:42;5.72;;;1.70;;
55136;SDS011;41032;47.818;-3.732;2022-11-15T09:10:10;4.70;;;1.40;;
55136;SDS011;41032;47.818;-3.732;2022-11-15T09:12:39;7.30;;;2.53;;
55136;SDS011;41032;47.818;-3.732;2022-11-15T09:15:08;12.93;;;2.28;;
55136;SDS011;41032;47.818;-3.732;2022-11-15T09:17:37;9.30;;;2.28;;
55136;SDS011;41032;47.818;-3.732;2022-11-15T09:20:05;6.85;;;2.08;;
55136;SDS011;41032;47.818;-3.732;2022-11-15T09:22:34;38.38;;;5.32;;
55136;SDS011;41032;47.818;-3.732;2022-11-15T09:25:04;24.00;;;3.75;;
55136;SDS011;41032;47.818;-3.732;2022-11-15T09:27:33;29.15;;;5.35;;
55136;SDS011;41032;47.818;-3.732;2022-11-15T09:30:02;53.92;;;7.65;;
55136;SDS011;41032;47.818;-3.732;2022-11-15T09:32:30;38.70;;;6.25;;
55136;SDS011;41032;47.818;-3.732;2022-11-15T09:34:59;22.40;;;5.00;;
55136;SDS011;41032;47.818;-3.732;2022-11-15T09:37:27;26.20;;;5.88;;
55136;SDS011;41032;47.818;-3.732;2022-11-15T09:39:56;19.15;;;4.65;;
55136;SDS011;41032;47.818;-3.732;2022-11-15T09:53:13;23.52;;;4.47;;
55136;SDS011;41032;47.818;-3.732;2022-11-15T09:55:51;25.60;;;3.92;;
55136;SDS011;41032;47.818;-3.732;2022-11-15T09:58:34;15.50;;;3.65;;
55136;SDS011;41032;47.818;-3.732;2022-11-15T10:01:10;18.42;;;4.03;;
55136;SDS011;41032;47.818;-3.732;2022-11-15T10:03:44;14.98;;;4.20;;
55136;SDS011;41032;47.818;-3.732;2022-11-15T10:06:21;21.20;;;3.55;;
55136;SDS011;41032;47.818;-3.732;2022-11-15T10:11:49;16.30;;;3.50;;
55136;SDS011;41032;47.818;-3.732;2022-11-15T10:14:19;13.63;;;3.05;;
55136;SDS011;41032;47.818;-3.732;2022-11-15T10:16:53;14.60;;;3.88;;
55136;SDS011;41032;47.818;-3.732;2022-11-15T10:19:29;13.80;;;3.28;;
55136;SDS011;41032;47.818;-3.732;2022-11-15T10:24:34;21.25;;;3.75;;
55136;SDS011;41032;47.818;-3.732;2022-11-15T10:27:13;20.88;;;4.22;;
55136;SDS011;41032;47.818;-3.732;2022-11-15T10:29:43;16.17;;;3.92;;
55136;SDS011;41032;47.818;-3.732;2022-11-15T10:32:14;20.83;;;4.93;;
55136;SDS011;41032;47.818;-3.732;2022-11-15T10:34:44;15.60;;;2.85;;
55136;SDS011;41032;47.818;-3.732;2022-11-15T10:37:14;15.40;;;4.13;;
55136;SDS011;41032;47.818;-3.732;2022-11-15T10:39:41;12.98;;;3.67;;
55136;SDS011;41032;47.818;-3.732;2022-11-15T10:42:28;19.73;;;3.90;;
55136;SDS011;41032;47.818;-3.732;2022-11-15T10:44:56;17.13;;;3.85;;
55136;SDS011;41032;47.818;-3.732;2022-11-15T10:47:25;22.42;;;3.03;;
55136;SDS011;41032;47.818;-3.732;2022-11-15T10:49:59;13.80;;;3.28;;
55136;SDS011;41032;47.818;-3.732;2022-11-15T10:52:29;12.57;;;3.35;;
55136;SDS011;41032;47.818;-3.732;2022-11-15T10:55:01;13.45;;;3.90;;
55136;SDS011;41032;47.818;-3.732;2022-11-15T10:57:33;14.40;;;3.38;;
55136;SDS011;41032;47.818;-3.732;2022-11-15T11:02:45;12.18;;;3.33;;
55136;SDS011;41032;47.818;-3.732;2022-11-15T11:05:35;12.35;;;3.22;;
55136;SDS011;41032;47.818;-3.732;2022-11-15T11:10:33;8.85;;;2.70;;
55136;SDS011;41032;47.818;-3.732;2022-11-15T11:13:39;14.15;;;3.00;;
55136;SDS011;41032;47.818;-3.732;2022-11-15T11:15:51;10.07;;;2.70;;
55136;SDS011;41032;47.818;-3.732;2022-11-15T11:19:04;9.63;;;2.97;;
55136;SDS011;41032;47.818;-3.732;2022-11-15T11:22:17;12.27;;;3.13;;
55136;SDS011;41032;47.818;-3.732;2022-11-15T11:24:25;9.57;;;2.95;;
55136;SDS011;41032;47.818;-3.732;2022-11-15T11:30:09;10.90;;;2.85;;
55136;SDS011;41032;47.818;-3.732;2022-11-15T11:33:24;8.00;;;2.50;;
55136;SDS011;41032;47.818;-3.732;2022-11-15T11:35:50;10.73;;;2.97;;
55136;SDS011;41032;47.818;-3.732;2022-11-15T11:38:26;12.13;;;2.97;;
55136;SDS011;41032;47.818;-3.732;2022-11-15T11:41:23;11.70;;;2.40;;
55136;SDS011;41032;47.818;-3.732;2022-11-15T11:44:28;11.95;;;2.92;;
55136;SDS011;41032;47.818;-3.732;2022-11-15T11:46:56;9.48;;;2.83;;
55136;SDS011;41032;47.818;-3.732;2022-11-15T11:49:46;6.63;;;2.38;;
55136;SDS011;41032;47.818;-3.732;2022-11-15T11:54:48;6.05;;;2.17;;
55136;SDS011;41032;47.818;-3.732;2022-11-15T11:57:30;8.45;;;2.03;;
55136;SDS011;41032;47.818;-3.732;2022-11-15T12:00:20;7.40;;;1.80;;
55136;SDS011;41032;47.818;-3.732;2022-11-15T12:05:59;9.02;;;2.20;;
55136;SDS011;41032;47.818;-3.732;2022-11-15T12:11:13;10.18;;;1.80;;
55136;SDS011;41032;47.818;-3.732;2022-11-15T12:13:44;7.78;;;2.15;;
55136;SDS011;41032;47.818;-3.732;2022-11-15T12:16:16;7.32;;;2.40;;
55136;SDS011;41032;47.818;-3.732;2022-11-15T12:18:47;6.43;;;1.90;;
55136;SDS011;41032;47.818;-3.732;2022-11-15T12:24:26;7.05;;;1.77;;
55136;SDS011;41032;47.818;-3.732;2022-11-15T12:27:08;6.90;;;2.25;;
55136;SDS011;41032;47.818;-3.732;2022-11-15T12:29:44;6.00;;;2.03;;
55136;SDS011;41032;47.818;-3.732;2022-11-15T12:32:22;6.88;;;2.03;;
55136;SDS011;41032;47.818;-3.732;2022-11-15T12:34:58;7.38;;;1.83;;
55136;SDS011;41032;47.818;-3.732;2022-11-15T12:42:39;5.20;;;1.55;;
55136;SDS011;41032;47.818;-3.732;2022-11-15T12:45:48;7.93;;;1.83;;
55136;SDS011;41032;47.818;-3.732;2022-11-15T12:51:04;4.53;;;1.50;;
55136;SDS011;41032;47.818;-3.732;2022-11-15T12:53:32;4.45;;;1.58;;
55136;SDS011;41032;47.818;-3.732;2022-11-15T12:56:20;4.47;;;1.48;;
55136;SDS011;41032;47.818;-3.732;2022-11-15T12:59:10;5.57;;;1.40;;
55136;SDS011;41032;47.818;-3.732;2022-11-15T13:04:25;8.25;;;1.52;;
55136;SDS011;41032;47.818;-3.732;2022-11-15T13:06:54;7.13;;;1.75;;
55136;SDS011;41032;47.818;-3.732;2022-11-15T13:11:56;8.25;;;1.70;;
55136;SDS011;41032;47.818;-3.732;2022-11-15T13:14:48;5.00;;;1.50;;
55136;SDS011;41032;47.818;-3.732;2022-11-15T13:19:48;6.95;;;1.65;;
55136;SDS011;41032;47.818;-3.732;2022-11-15T13:22:21;6.00;;;1.75;;
55136;SDS011;41032;47.818;-3.732;2022-11-15T13:33:15;9.07;;;1.58;;
55136;SDS011;41032;47.818;-3.732;2022-11-15T13:35:47;4.90;;;2.15;;
55136;SDS011;41032;47.818;-3.732;2022-11-15T13:38:28;8.38;;;2.10;;
55136;SDS011;41032;47.818;-3.732;2022-11-15T13:40:58;3.55;;;1.50;;
55136;SDS011;41032;47.818;-3.732;2022-11-15T13:43:37;8.95;;;2.25;;
55136;SDS011;41032;47.818;-3.732;2022-11-15T13:49:03;4.78;;;1.42;;
55136;SDS011;41032;47.818;-3.732;2022-11-15T13:56:48;6.57;;;1.40;;
55136;SDS011;41032;47.818;-3.732;2022-11-15T14:01:53;5.70;;;1.50;;
55136;SDS011;41032;47.818;-3.732;2022-11-15T14:04:22;5.07;;;1.52;;
55136;SDS011;41032;47.818;-3.732;2022-11-15T14:06:53;8.10;;;1.73;;
55136;SDS011;41032;47.818;-3.732;2022-11-15T14:09:33;8.13;;;1.60;;
55136;SDS011;41032;47.818;-3.732;2022-11-15T14:12:19;6.20;;;1.67;;
55136;SDS011;41032;47.818;-3.732;2022-11-15T14:14:52;5.13;;;1.52;;
55136;SDS011;41032;47.818;-3.732;2022-11-15T14:17:32;6.32;;;1.90;;
55136;SDS011;41032;47.818;-3.732;2022-11-15T14:20:01;8.20;;;1.80;;
55136;SDS011;41032;47.818;-3.732;2022-11-15T14:22:29;4.45;;;1.40;;
55136;SDS011;41032;47.818;-3.732;2022-11-15T14:27:40;4.75;;;1.25;;
55136;SDS011;41032;47.818;-3.732;2022-11-15T14:30:16;7.72;;;2.05;;
55136;SDS011;41032;47.818;-3.732;2022-11-15T14:35:15;5.32;;;1.55;;
55136;SDS011;41032;47.818;-3.732;2022-11-15T14:37:43;4.60;;;1.23;;
55136;SDS011;41032;47.818;-3.732;2022-11-15T14:40:12;5.82;;;1.58;;
55136;SDS011;41032;47.818;-3.732;2022-11-15T14:42:41;5.38;;;1.52;;
55136;SDS011;41032;47.818;-3.732;2022-11-15T14:45:15;5.97;;;1.77;;
55136;SDS011;41032;47.818;-3.732;2022-11-15T14:47:45;8.32;;;1.65;;
55136;SDS011;41032;47.818;-3.732;2022-11-15T14:50:14;4.90;;;1.45;;
55136;SDS011;41032;47.818;-3.732;2022-11-15T14:52:45;7.53;;;1.75;;
55136;SDS011;41032;47.818;-3.732;2022-11-15T14:55:16;5.15;;;1.50;;
55136;SDS011;41032;47.818;-3.732;2022-11-15T14:57:48;4.60;;;1.40;;
55136;SDS011;41032;47.818;-3.732;2022-11-15T15:00:20;4.70;;;1.60;;
55136;SDS011;41032;47.818;-3.732;2022-11-15T15:02:48;6.70;;;1.42;;
55136;SDS011;41032;47.818;-3.732;2022-11-15T15:05:20;7.93;;;1.90;;
55136;SDS011;41032;47.818;-3.732;2022-11-15T15:07:49;7.50;;;1.42;;
55136;SDS011;41032;47.818;-3.732;2022-11-15T15:10:19;9.57;;;2.00;;
55136;SDS011;41032;47.818;-3.732;2022-11-15T15:12:48;5.53;;;1.90;;
55136;SDS011;41032;47.818;-3.732;2022-11-15T15:15:19;5.70;;;1.58;;
55136;SDS011;41032;47.818;-3.732;2022-11-15T15:17:52;5.32;;;1.63;;
55136;SDS011;41032;47.818;-3.732;2022-11-15T15:20:20;4.40;;;1.20;;
55136;SDS011;41032;47.818;-3.732;2022-11-15T15:22:49;5.65;;;2.08;;
55136;SDS011;41032;47.818;-3.732;2022-11-15T15:25:37;4.47;;;1.65;;
55136;SDS011;41032;47.818;-3.732;2022-11-15T15:28:04;1.98;;;0.88;;
55136;SDS011;41032;47.818;-3.732;2022-11-15T15:30:33;5.65;;;1.40;;
55136;SDS011;41032;47.818;-3.732;2022-11-15T15:33:01;5.95;;;1.38;;
55136;SDS011;41032;47.818;-3.732;2022-11-15T15:35:30;8.00;;;1.67;;
55136;SDS011;41032;47.818;-3.732;2022-11-15T15:38:01;4.50;;;1.27;;
55136;SDS011;41032;47.818;-3.732;2022-11-15T15:40:30;5.28;;;1.23;;
55136;SDS011;41032;47.818;-3.732;2022-11-15T15:42:59;5.93;;;1.27;;
55136;SDS011;41032;47.818;-3.732;2022-11-15T15:45:28;5.38;;;1.60;;
55136;SDS011;41032;47.818;-3.732;2022-11-15T15:47:57;4.35;;;1.30;;
55136;SDS011;41032;47.818;-3.732;2022-11-15T15:50:27;4.00;;;1.20;;
55136;SDS011;41032;47.818;-3.732;2022-11-15T15:52:57;6.38;;;1.55;;
55136;SDS011;41032;47.818;-3.732;2022-11-15T15:55:27;3.72;;;0.98;;
55136;SDS011;41032;47.818;-3.732;2022-11-15T15:57:56;7.63;;;1.88;;
55136;SDS011;41032;47.818;-3.732;2022-11-15T16:00:24;4.50;;;1.55;;
55136;SDS011;41032;47.818;-3.732;2022-11-15T16:02:52;4.25;;;1.50;;
55136;SDS011;41032;47.818;-3.732;2022-11-15T16:05:20;5.80;;;1.38;;
55136;SDS011;41032;47.818;-3.732;2022-11-15T16:07:50;6.45;;;1.55;;
55136;SDS011;41032;47.818;-3.732;2022-11-15T16:10:19;5.97;;;2.08;;
55136;SDS011;41032;47.818;-3.732;2022-11-15T16:12:51;4.80;;;1.25;;
55136;SDS011;41032;47.818;-3.732;2022-11-15T16:15:20;3.55;;;1.10;;
55136;SDS011;41032;47.818;-3.732;2022-11-15T16:17:50;4.90;;;1.75;;
55136;SDS011;41032;47.818;-3.732;2022-11-15T16:20:22;4.75;;;1.65;;
55136;SDS011;41032;47.818;-3.732;2022-11-15T16:22:56;7.00;;;1.90;;
55136;SDS011;41032;47.818;-3.732;2022-11-15T16:25:25;3.78;;;1.30;;
55136;SDS011;41032;47.818;-3.732;2022-11-15T16:27:54;5.75;;;1.92;;
55136;SDS011;41032;47.818;-3.732;2022-11-15T16:30:22;4.10;;;1.40;;
55136;SDS011;41032;47.818;-3.732;2022-11-15T16:32:51;5.40;;;1.40;;
55136;SDS011;41032;47.818;-3.732;2022-11-15T16:35:21;4.53;;;1.30;;
55136;SDS011;41032;47.818;-3.732;2022-11-15T16:37:48;5.47;;;1.50;;
55136;SDS011;41032;47.818;-3.732;2022-11-15T16:40:25;3.45;;;1.02;;
55136;SDS011;41032;47.818;-3.732;2022-11-15T16:42:57;3.75;;;1.15;;
55136;SDS011;41032;47.818;-3.732;2022-11-15T16:45:27;6.38;;;2.22;;
55136;SDS011;41032;47.818;-3.732;2022-11-15T16:47:56;6.13;;;1.40;;
55136;SDS011;41032;47.818;-3.732;2022-11-15T16:50:26;5.55;;;1.88;;
55136;SDS011;41032;47.818;-3.732;2022-11-15T16:52:56;5.55;;;1.35;;
55136;SDS011;41032;47.818;-3.732;2022-11-15T16:55:26;4.53;;;1.58;;
55136;SDS011;41032;47.818;-3.732;2022-11-15T16:57:55;5.60;;;1.65;;
55136;SDS011;41032;47.818;-3.732;2022-11-15T17:00:24;4.53;;;1.30;;
55136;SDS011;41032;47.818;-3.732;2022-11-15T17:02:52;6.78;;;1.95;;
55136;SDS011;41032;47.818;-3.732;2022-11-15T17:05:21;7.22;;;1.58;;
55136;SDS011;41032;47.818;-3.732;2022-11-15T17:07:52;5.25;;;1.85;;
55136;SDS011;41032;47.818;-3.732;2022-11-15T17:10:21;3.72;;;1.33;;
55136;SDS011;41032;47.818;-3.732;2022-11-15T17:12:50;7.80;;;2.17;;
55136;SDS011;41032;47.818;-3.732;2022-11-15T17:15:18;6.03;;;1.42;;
55136;SDS011;41032;47.818;-3.732;2022-11-15T17:17:51;5.68;;;1.50;;
55136;SDS011;41032;47.818;-3.732;2022-11-15T17:20:20;7.55;;;2.13;;
55136;SDS011;41032;47.818;-3.732;2022-11-15T17:22:51;6.30;;;1.70;;
55136;SDS011;41032;47.818;-3.732;2022-11-15T17:25:19;4.22;;;1.48;;
55136;SDS011;41032;47.818;-3.732;2022-11-15T17:27:47;10.75;;;2.38;;
55136;SDS011;41032;47.818;-3.732;2022-11-15T17:30:15;8.00;;;2.10;;
55136;SDS011;41032;47.818;-3.732;2022-11-15T17:32:45;6.57;;;1.88;;
55136;SDS011;41032;47.818;-3.732;2022-11-15T17:35:14;3.53;;;1.13;;
55136;SDS011;41032;47.818;-3.732;2022-11-15T17:37:42;7.10;;;1.90;;
55136;SDS011;41032;47.818;-3.732;2022-11-15T17:40:10;9.38;;;1.98;;
55136;SDS011;41032;47.818;-3.732;2022-11-15T17:42:39;6.10;;;1.70;;
55136;SDS011;41032;47.818;-3.732;2022-11-15T17:45:07;9.32;;;1.80;;
55136;SDS011;41032;47.818;-3.732;2022-11-15T17:47:35;4.70;;;1.50;;
55136;SDS011;41032;47.818;-3.732;2022-11-15T17:50:03;6.68;;;2.05;;
55136;SDS011;41032;47.818;-3.732;2022-11-15T17:52:31;11.77;;;2.00;;
55136;SDS011;41032;47.818;-3.732;2022-11-15T17:54:58;5.53;;;1.55;;
55136;SDS011;41032;47.818;-3.732;2022-11-15T17:57:25;5.70;;;1.73;;
55136;SDS011;41032;47.818;-3.732;2022-11-15T17:59:52;6.03;;;1.90;;
55136;SDS011;41032;47.818;-3.732;2022-11-15T18:02:19;8.35;;;2.13;;
55136;SDS011;41032;47.818;-3.732;2022-11-15T18:04:47;11.55;;;2.53;;
55136;SDS011;41032;47.818;-3.732;2022-11-15T18:07:16;8.73;;;1.67;;
55136;SDS011;41032;47.818;-3.732;2022-11-15T18:09:44;8.27;;;2.05;;
55136;SDS011;41032;47.818;-3.732;2022-11-15T18:12:13;6.30;;;1.40;;
55136;SDS011;41032;47.818;-3.732;2022-11-15T18:14:41;10.35;;;1.98;;
55136;SDS011;41032;47.818;-3.732;2022-11-15T18:17:10;4.75;;;1.88;;
55136;SDS011;41032;47.818;-3.732;2022-11-15T18:19:39;6.22;;;1.33;;
55136;SDS011;41032;47.818;-3.732;2022-11-15T18:22:07;4.72;;;1.75;;
55136;SDS011;41032;47.818;-3.732;2022-11-15T18:24:35;4.85;;;1.40;;
55136;SDS011;41032;47.818;-3.732;2022-11-15T18:27:04;7.90;;;1.75;;
55136;SDS011;41032;47.818;-3.732;2022-11-15T18:29:32;7.57;;;2.00;;
55136;SDS011;41032;47.818;-3.732;2022-11-15T18:32:03;8.63;;;1.80;;
55136;SDS011;41032;47.818;-3.732;2022-11-15T18:34:37;4.75;;;1.55;;
55136;SDS011;41032;47.818;-3.732;2022-11-15T18:37:06;6.35;;;1.80;;
55136;SDS011;41032;47.818;-3.732;2022-11-15T18:39:34;7.40;;;1.70;;
55136;SDS011;41032;47.818;-3.732;2022-11-15T18:42:03;8.82;;;2.47;;
55136;SDS011;41032;47.818;-3.732;2022-11-15T18:44:31;6.78;;;1.83;;
55136;SDS011;41032;47.818;-3.732;2022-11-15T18:47:00;10.18;;;2.58;;
55136;SDS011;41032;47.818;-3.732;2022-11-15T18:49:28;13.45;;;3.58;;
55136;SDS011;41032;47.818;-3.732;2022-11-15T18:51:57;14.68;;;3.08;;
55136;SDS011;41032;47.818;-3.732;2022-11-15T18:54:26;9.00;;;2.47;;
55136;SDS011;41032;47.818;-3.732;2022-11-15T18:56:54;13.40;;;3.35;;
55136;SDS011;41032;47.818;-3.732;2022-11-15T18:59:23;11.80;;;3.40;;
55136;SDS011;41032;47.818;-3.732;2022-11-15T19:01:52;11.27;;;3.67;;
55136;SDS011;41032;47.818;-3.732;2022-11-15T19:04:21;11.27;;;3.22;;
55136;SDS011;41032;47.818;-3.732;2022-11-15T19:06:50;12.40;;;3.10;;
55136;SDS011;41032;47.818;-3.732;2022-11-15T19:09:18;6.68;;;2.38;;
55136;SDS011;41032;47.818;-3.732;2022-11-15T19:11:47;10.15;;;2.50;;
55136;SDS011;41032;47.818;-3.732;2022-11-15T19:14:16;8.70;;;2.20;;
55136;SDS011;41032;47.818;-3.732;2022-11-15T19:16:48;10.35;;;2.70;;
55136;SDS011;41032;47.818;-3.732;2022-11-15T19:19:18;8.70;;;2.22;;
55136;SDS011;41032;47.818;-3.732;2022-11-15T19:21:48;9.77;;;2.65;;
55136;SDS011;41032;47.818;-3.732;2022-11-15T19:24:17;8.48;;;2.20;;
55136;SDS011;41032;47.818;-3.732;2022-11-15T19:26:45;8.25;;;2.03;;
55136;SDS011;41032;47.818;-3.732;2022-11-15T19:29:13;7.25;;;2.00;;
55136;SDS011;41032;47.818;-3.732;2022-11-15T19:31:43;7.15;;;2.00;;
55136;SDS011;41032;47.818;-3.732;2022-11-15T19:34:13;6.53;;;1.75;;
55136;SDS011;41032;47.818;-3.732;2022-11-15T19:36:42;9.23;;;2.22;;
55136;SDS011;41032;47.818;-3.732;2022-11-15T19:39:12;6.18;;;1.80;;
55136;SDS011;41032;47.818;-3.732;2022-11-15T19:41:42;6.82;;;1.55;;
55136;SDS011;41032;47.818;-3.732;2022-11-15T19:44:13;6.10;;;1.83;;
55136;SDS011;41032;47.818;-3.732;2022-11-15T19:46:43;5.88;;;1.75;;
55136;SDS011;41032;47.818;-3.732;2022-11-15T19:49:12;6.18;;;1.80;;
55136;SDS011;41032;47.818;-3.732;2022-11-15T19:51:40;6.50;;;1.75;;
55136;SDS011;41032;47.818;-3.732;2022-11-15T19:54:12;7.10;;;1.70;;
55136;SDS011;41032;47.818;-3.732;2022-11-15T19:56:42;6.45;;;1.60;;
55136;SDS011;41032;47.818;-3.732;2022-11-15T19:59:10;5.00;;;1.83;;
55136;SDS011;41032;47.818;-3.732;2022-11-15T20:01:39;5.70;;;1.67;;
55136;SDS011;41032;47.818;-3.732;2022-11-15T20:04:08;5.28;;;1.33;;
55136;SDS011;41032;47.818;-3.732;2022-11-15T20:06:38;5.70;;;1.35;;
55136;SDS011;41032;47.818;-3.732;2022-11-15T20:09:13;6.97;;;1.50;;
55136;SDS011;41032;47.818;-3.732;2022-11-15T20:11:43;4.00;;;1.10;;
55136;SDS011;41032;47.818;-3.732;2022-11-15T20:14:12;3.53;;;1.25;;
55136;SDS011;41032;47.818;-3.732;2022-11-15T20:16:40;3.95;;;1.27;;
55136;SDS011;41032;47.818;-3.732;2022-11-15T20:19:09;6.63;;;1.38;;
55136;SDS011;41032;47.818;-3.732;2022-11-15T20:21:37;6.38;;;1.85;;
55136;SDS011;41032;47.818;-3.732;2022-11-15T20:24:06;3.22;;;1.40;;
55136;SDS011;41032;47.818;-3.732;2022-11-15T20:26:35;3.33;;;1.08;;
55136;SDS011;41032;47.818;-3.732;2022-11-15T20:29:03;4.80;;;1.33;;
55136;SDS011;41032;47.818;-3.732;2022-11-15T20:31:33;7.97;;;1.65;;
55136;SDS011;41032;47.818;-3.732;2022-11-15T20:34:01;9.38;;;1.88;;
55136;SDS011;41032;47.818;-3.732;2022-11-15T20:36:30;4.03;;;1.23;;
55136;SDS011;41032;47.818;-3.732;2022-11-15T20:38:58;4.28;;;1.23;;
55136;SDS011;41032;47.818;-3.732;2022-11-15T20:41:27;5.90;;;1.48;;
55136;SDS011;41032;47.818;-3.732;2022-11-15T20:43:55;3.90;;;1.30;;
55136;SDS011;41032;47.818;-3.732;2022-11-15T20:46:24;3.78;;;1.13;;
55136;SDS011;41032;47.818;-3.732;2022-11-15T20:48:52;5.15;;;1.33;;
55136;SDS011;41032;47.818;-3.732;2022-11-15T20:51:20;6.03;;;1.65;;
55136;SDS011;41032;47.818;-3.732;2022-11-15T20:53:48;3.15;;;1.23;;
55136;SDS011;41032;47.818;-3.732;2022-11-15T20:56:19;5.80;;;1.45;;
55136;SDS011;41032;47.818;-3.732;2022-11-15T20:58:47;5.93;;;1.60;;
55136;SDS011;41032;47.818;-3.732;2022-11-15T21:01:17;7.38;;;2.03;;
55136;SDS011;41032;47.818;-3.732;2022-11-15T21:03:49;9.07;;;1.65;;
55136;SDS011;41032;47.818;-3.732;2022-11-15T21:06:19;5.25;;;1.10;;
55136;SDS011;41032;47.818;-3.732;2022-11-15T21:08:48;6.85;;;1.70;;
55136;SDS011;41032;47.818;-3.732;2022-11-15T21:11:36;5.50;;;1.77;;
